createdAt,value
2023-03-06T00:01:00.713Z,70.68
2023-03-06T00:03:29.017Z,69.48
2023-03-06T00:05:58.895Z,70.79
2023-03-06T00:08:29.105Z,71.33
2023-03-06T00:10:57.659Z,71.69
2023-03-06T00:13:30.265Z,74.30
2023-03-06T00:16:03.201Z,73.17
2023-03-06T00:18:30.860Z,72.58
2023-03-06T00:20:58.337Z,72.60
2023-03-06T00:23:46.846Z,72.70
2023-03-06T00:26:14.507Z,72.59
2023-03-06T00:28:42.970Z,70.80
2023-03-06T00:31:10.451Z,68.95
2023-03-06T00:33:37.931Z,67.87
2023-03-06T00:36:08.737Z,66.74
2023-03-06T00:38:37.282Z,68.32
2023-03-06T00:41:10.608Z,67.61
2023-03-06T00:43:38.208Z,69.58
2023-03-06T00:46:08.522Z,68.65
2023-03-06T00:48:36.121Z,68.09
2023-03-06T00:51:04.066Z,68.14
2023-03-06T00:53:31.719Z,67.49
2023-03-06T00:55:59.263Z,68.12
2023-03-06T00:58:26.733Z,68.81
2023-03-06T01:00:56.675Z,68.11
2023-03-06T01:03:24.197Z,66.97
2023-03-06T01:05:53.435Z,69.03
2023-03-06T01:08:20.878Z,68.62
2023-03-06T01:10:48.353Z,68.24
2023-03-06T01:13:17.157Z,67.66
2023-03-06T01:15:44.682Z,70.09
2023-03-06T01:18:12.193Z,68.00
2023-03-06T01:20:39.796Z,68.45
2023-03-06T01:23:07.283Z,68.83
2023-03-06T01:25:34.890Z,68.16
2023-03-06T01:28:02.375Z,68.83
2023-03-06T01:30:29.859Z,67.89
2023-03-06T01:32:57.456Z,67.82
2023-03-06T01:35:26.529Z,67.37
2023-03-06T01:37:54.083Z,67.71
2023-03-06T01:40:21.713Z,69.85
2023-03-06T01:42:50.692Z,68.70
2023-03-06T01:45:18.184Z,68.50
2023-03-06T01:47:45.699Z,70.36
2023-03-06T01:50:13.835Z,68.30
2023-03-06T01:52:52.459Z,69.22
2023-03-06T01:55:28.498Z,68.92
2023-03-06T01:58:02.916Z,68.49
2023-03-06T02:00:33.263Z,69.07
2023-03-06T02:03:11.115Z,67.38
2023-03-06T02:05:41.944Z,67.98
2023-03-06T02:08:13.374Z,69.81
2023-03-06T02:11:12.526Z,69.66
2023-03-06T02:13:42.792Z,67.77
2023-03-06T02:16:13.422Z,68.47
2023-03-06T02:18:43.276Z,67.82
2023-03-06T02:21:20.965Z,66.99
2023-03-06T02:24:13.820Z,66.97
2023-03-06T02:26:43.139Z,68.44
2023-03-06T02:29:10.878Z,68.80
2023-03-06T02:31:38.674Z,70.31
2023-03-06T02:34:31.137Z,69.68
2023-03-06T02:37:09.669Z,70.40
2023-03-06T02:39:43.360Z,69.86
2023-03-06T02:42:18.860Z,70.04
2023-03-06T02:44:46.868Z,69.71
2023-03-06T02:47:14.520Z,69.38
2023-03-06T02:49:42.013Z,67.42
2023-03-06T02:52:10.170Z,68.69
2023-03-06T02:54:40.159Z,71.11
2023-03-06T02:57:08.351Z,70.35
2023-03-06T02:59:36.520Z,70.88
2023-03-06T03:02:06.150Z,70.50
2023-03-06T03:04:35.267Z,70.41
2023-03-06T03:07:03.898Z,70.57
2023-03-06T03:09:36.918Z,70.75
2023-03-06T03:12:08.426Z,70.05
2023-03-06T03:14:36.088Z,72.05
2023-03-06T03:17:04.666Z,72.00
2023-03-06T03:19:32.381Z,69.27
2023-03-06T03:22:00.136Z,68.79
2023-03-06T03:24:28.395Z,66.21
2023-03-06T03:26:56.122Z,67.07
2023-03-06T03:29:25.278Z,67.04
2023-03-06T03:31:53.577Z,67.41
2023-03-06T03:34:23.302Z,66.85
2023-03-06T03:36:50.829Z,66.54
2023-03-06T03:39:18.851Z,66.91
2023-03-06T03:41:47.155Z,68.78
2023-03-06T03:44:14.706Z,70.35
2023-03-06T03:46:42.314Z,70.56
2023-03-06T03:49:15.034Z,69.77
2023-03-06T03:51:44.794Z,71.73
2023-03-06T03:54:12.340Z,73.42
2023-03-06T03:56:44.586Z,69.75
2023-03-06T03:59:18.134Z,69.44
2023-03-06T04:01:56.656Z,68.99
2023-03-06T04:04:25.919Z,70.62
2023-03-06T04:06:53.875Z,71.38
2023-03-06T04:09:21.487Z,71.10
2023-03-06T04:11:49.219Z,72.27
2023-03-06T04:14:16.882Z,74.93
2023-03-06T04:16:44.447Z,75.61
2023-03-06T04:19:12.028Z,74.84
2023-03-06T04:21:40.613Z,72.96
2023-03-06T04:24:09.802Z,71.69
2023-03-06T04:26:37.370Z,70.12
2023-03-06T04:29:06.142Z,72.73
2023-03-06T04:31:34.247Z,71.31
2023-03-06T04:34:02.012Z,74.09
2023-03-06T04:36:35.060Z,75.91
2023-03-06T04:39:07.473Z,76.33
2023-03-06T04:41:35.744Z,76.27
2023-03-06T04:44:03.543Z,77.00
2023-03-06T04:46:31.116Z,77.27
2023-03-06T04:48:59.960Z,76.92
2023-03-06T04:51:27.843Z,74.81
2023-03-06T04:53:55.402Z,71.61
2023-03-06T04:56:23.318Z,71.60
2023-03-06T04:58:50.983Z,69.62
2023-03-06T05:01:18.629Z,69.64
2023-03-06T05:03:46.353Z,69.95
2023-03-06T05:06:13.784Z,71.79
2023-03-06T05:08:41.353Z,70.96
2023-03-06T05:11:08.843Z,72.35
2023-03-06T05:13:36.360Z,68.93
2023-03-06T05:16:06.267Z,70.29
2023-03-06T05:18:35.014Z,69.31
2023-03-06T05:21:03.060Z,69.81
2023-03-06T05:23:32.809Z,69.22
2023-03-06T05:26:00.979Z,70.08
2023-03-06T05:28:28.766Z,68.67
2023-03-06T05:30:56.379Z,67.99
2023-03-06T05:33:23.908Z,69.19
2023-03-06T05:35:51.537Z,71.02
2023-03-06T05:38:19.697Z,70.54
2023-03-06T05:40:48.138Z,70.97
2023-03-06T05:43:15.666Z,71.49
2023-03-06T05:45:43.277Z,70.38
2023-03-06T05:48:14.069Z,71.01
2023-03-06T05:50:41.644Z,70.42
2023-03-06T05:53:09.052Z,69.90
2023-03-06T05:55:36.522Z,70.55
2023-03-06T05:58:03.938Z,71.00
2023-03-06T06:00:31.416Z,69.48
2023-03-06T06:03:02.236Z,69.20
2023-03-06T06:05:29.748Z,69.53
2023-03-06T06:07:57.188Z,71.56
2023-03-06T06:10:24.653Z,71.13
2023-03-06T06:12:52.084Z,70.90
2023-03-06T06:15:19.554Z,70.80
2023-03-06T06:17:47.025Z,70.60
2023-03-06T06:20:14.913Z,69.34
2023-03-06T06:22:42.488Z,68.40
2023-03-06T06:25:10.163Z,69.23
2023-03-06T06:27:37.701Z,68.38
2023-03-06T06:30:07.814Z,68.86
2023-03-06T06:32:36.003Z,68.32
2023-03-06T06:35:03.941Z,67.81
2023-03-06T06:37:32.357Z,69.08
2023-03-06T06:39:59.782Z,69.02
2023-03-06T06:42:33.255Z,65.75
2023-03-06T06:45:05.237Z,63.62
2023-03-06T06:47:34.352Z,62.54
2023-03-06T06:50:01.961Z,62.74
2023-03-06T06:52:29.493Z,61.39
2023-03-06T06:54:57.135Z,63.27
2023-03-06T06:57:24.609Z,61.86
2023-03-06T06:59:54.593Z,60.89
2023-03-06T07:02:22.393Z,61.26
2023-03-06T07:05:03.128Z,61.08
2023-03-06T07:07:37.200Z,60.47
2023-03-06T07:10:10.886Z,60.59
2023-03-06T07:12:38.486Z,60.11
2023-03-06T07:15:08.321Z,61.43
2023-03-06T07:17:35.789Z,62.11
2023-03-06T07:20:04.462Z,58.33
2023-03-06T07:22:38.713Z,58.54
2023-03-06T07:25:16.721Z,56.38
2023-03-06T07:27:48.794Z,55.00
2023-03-06T07:30:20.846Z,57.71
2023-03-06T07:32:48.333Z,57.91
2023-03-06T07:35:20.928Z,55.87
2023-03-06T07:37:48.750Z,55.16
2023-03-06T07:40:16.460Z,56.72
2023-03-06T07:42:44.076Z,54.41
2023-03-06T07:45:14.126Z,53.11
2023-03-06T07:47:42.305Z,53.26
2023-03-06T07:50:10.843Z,52.18
2023-03-06T07:52:38.360Z,52.38
2023-03-06T07:55:06.717Z,51.85
2023-03-06T07:57:34.173Z,53.18
2023-03-06T08:00:01.710Z,50.80
2023-03-06T08:02:29.224Z,52.18
2023-03-06T08:04:57.277Z,53.09
2023-03-06T08:07:24.765Z,52.98
2023-03-06T08:09:52.405Z,54.77
2023-03-06T08:12:20.101Z,52.39
2023-03-06T08:14:47.621Z,52.31
2023-03-06T08:17:15.220Z,54.55
2023-03-06T08:19:42.728Z,52.98
2023-03-06T08:22:11.247Z,54.27
2023-03-06T08:24:38.812Z,55.14
2023-03-06T08:27:06.424Z,54.20
2023-03-06T08:29:33.892Z,51.92
2023-03-06T08:32:01.545Z,48.60
2023-03-06T08:34:29.202Z,48.62
2023-03-06T08:36:56.705Z,49.91
2023-03-06T08:39:24.251Z,48.27
2023-03-06T08:41:51.897Z,48.00
2023-03-06T08:44:19.392Z,48.68
2023-03-06T08:46:48.002Z,48.29
2023-03-06T08:49:15.587Z,50.24
2023-03-06T08:51:43.192Z,50.77
2023-03-06T08:54:13.693Z,49.01
2023-03-06T08:56:41.170Z,46.68
2023-03-06T08:59:09.461Z,46.40
2023-03-06T09:01:38.427Z,44.04
2023-03-06T09:04:12.162Z,44.58
2023-03-06T09:06:42.646Z,44.28
2023-03-06T09:09:10.267Z,44.65
2023-03-06T09:11:38.134Z,44.93
2023-03-06T09:14:06.868Z,45.45
2023-03-06T09:16:34.560Z,45.40
2023-03-06T09:19:02.128Z,44.52
2023-03-06T09:21:29.750Z,44.46
2023-03-06T09:23:57.502Z,43.32
2023-03-06T09:26:39.702Z,42.93
2023-03-06T09:29:16.386Z,41.81
2023-03-06T09:31:45.080Z,41.04
2023-03-06T09:34:12.769Z,43.51
2023-03-06T09:36:55.311Z,44.20
2023-03-06T09:39:27.223Z,42.33
2023-03-06T09:41:57.487Z,43.55
2023-03-06T09:44:33.403Z,44.02
2023-03-06T09:47:45.007Z,42.38
2023-03-06T09:50:30.040Z,45.02
2023-03-06T09:53:49.495Z,41.32
2023-03-06T09:56:30.137Z,41.11
2023-03-06T09:59:17.372Z,42.26
2023-03-06T10:02:01.920Z,42.72
2023-03-06T10:04:52.463Z,43.20
2023-03-06T10:07:27.530Z,41.41
2023-03-06T10:10:01.340Z,42.15
2023-03-06T10:12:39.178Z,42.76
2023-03-06T10:15:19.724Z,40.69
2023-03-06T10:17:47.551Z,41.11
2023-03-06T10:20:28.575Z,42.96
2023-03-06T10:23:24.970Z,43.86
2023-03-06T10:26:24.655Z,42.74
2023-03-06T10:29:27.561Z,43.24
2023-03-06T10:32:11.366Z,42.63
2023-03-06T10:34:40.092Z,40.49
2023-03-06T10:37:23.016Z,40.08
2023-03-06T10:40:03.827Z,43.21
2023-03-06T10:42:31.456Z,41.18
2023-03-06T10:45:29.929Z,40.36
2023-03-06T10:48:14.962Z,40.89
2023-03-06T10:50:43.587Z,42.36
2023-03-06T10:53:22.893Z,39.69
2023-03-06T10:55:59.946Z,41.77
2023-03-06T10:58:32.742Z,38.17
2023-03-06T11:01:26.562Z,40.36
2023-03-06T11:03:54.212Z,37.22
2023-03-06T11:06:35.128Z,37.80
2023-03-06T11:09:24.229Z,39.72
2023-03-06T11:12:20.280Z,38.10
2023-03-06T11:14:47.924Z,37.04
2023-03-06T11:17:32.126Z,38.63
2023-03-06T11:20:23.836Z,37.32
2023-03-06T11:23:13.946Z,37.40
2023-03-06T11:26:13.619Z,39.26
2023-03-06T11:29:29.330Z,37.47
2023-03-06T11:32:12.765Z,38.25
2023-03-06T11:34:58.143Z,36.83
2023-03-06T11:37:54.662Z,37.32
2023-03-06T11:40:37.508Z,36.78
2023-03-06T11:43:23.456Z,36.82
2023-03-06T11:46:07.653Z,33.99
2023-03-06T11:49:01.721Z,35.99
2023-03-06T11:51:43.448Z,34.78
2023-03-06T11:54:14.285Z,34.88
2023-03-06T11:57:02.261Z,34.00
2023-03-06T11:59:55.566Z,35.35
2023-03-06T12:02:26.792Z,34.92
2023-03-06T12:05:18.371Z,34.29
2023-03-06T12:08:21.085Z,34.99
2023-03-06T12:11:15.165Z,32.49
2023-03-06T12:14:27.208Z,32.71
2023-03-06T12:17:31.316Z,34.10
2023-03-06T12:20:23.108Z,33.16
2023-03-06T12:23:23.623Z,31.13
2023-03-06T12:26:18.658Z,32.29
2023-03-06T12:29:16.364Z,30.92
2023-03-06T12:32:17.038Z,32.78
2023-03-06T12:35:26.283Z,32.28
2023-03-06T12:38:37.462Z,34.04
2023-03-06T12:41:31.257Z,33.33
2023-03-06T12:44:20.520Z,31.25
2023-03-06T12:46:57.123Z,33.86
2023-03-06T12:49:32.488Z,31.84
2023-03-06T12:52:01.441Z,32.53
2023-03-06T12:54:37.830Z,30.26
2023-03-06T12:57:08.845Z,30.25
2023-03-06T12:59:50.108Z,30.33
2023-03-06T13:03:07.299Z,31.40
2023-03-06T13:06:00.532Z,30.60
2023-03-06T13:09:12.264Z,30.91
2023-03-06T13:11:58.606Z,29.65
2023-03-06T13:14:42.281Z,30.71
2023-03-06T13:17:25.511Z,29.20
2023-03-06T13:20:35.603Z,29.90
2023-03-06T13:23:35.556Z,28.30
2023-03-06T13:26:05.822Z,30.31
2023-03-06T13:31:34.023Z,29.73
2023-03-06T13:34:39.336Z,29.67
2023-03-06T13:37:19.939Z,30.96
2023-03-06T13:39:56.807Z,29.93
2023-03-06T13:42:32.413Z,29.40
2023-03-06T13:45:26.095Z,30.00
2023-03-06T13:48:27.292Z,29.70
2023-03-06T13:50:47.500Z,28.86
2023-03-06T13:53:40.801Z,28.19
2023-03-06T13:56:51.408Z,27.69
2023-03-06T13:59:34.672Z,27.12
2023-03-06T14:02:38.822Z,27.87
2023-03-06T14:05:17.840Z,27.79
2023-03-06T14:07:48.535Z,28.77
2023-03-06T14:10:21.883Z,28.59
2023-03-06T14:12:57.568Z,27.46
2023-03-06T14:15:34.815Z,28.21
2023-03-06T14:18:08.111Z,29.79
2023-03-06T14:21:03.543Z,30.62
2023-03-06T14:23:42.660Z,30.34
2023-03-06T14:26:19.374Z,30.64
2023-03-06T14:28:52.651Z,29.79
2023-03-06T14:31:38.081Z,31.63
2023-03-06T14:34:28.947Z,32.10
2023-03-06T14:37:02.065Z,31.38
2023-03-06T14:39:39.175Z,30.66
2023-03-06T14:42:30.338Z,33.71
2023-03-06T14:45:17.140Z,33.10
2023-03-06T14:47:50.929Z,32.87
2023-03-06T14:50:34.438Z,34.65
2023-03-06T14:53:26.084Z,35.90
2023-03-06T14:56:05.700Z,38.76
2023-03-06T14:59:02.817Z,40.19
2023-03-06T15:01:39.441Z,42.40
2023-03-06T15:04:40.185Z,44.02
2023-03-06T15:07:13.553Z,45.85
2023-03-06T15:09:50.994Z,45.97
2023-03-06T15:12:21.255Z,44.60
2023-03-06T15:15:04.200Z,45.75
2023-03-06T15:17:40.451Z,47.61
2023-03-06T15:20:46.822Z,48.62
2023-03-06T15:23:26.848Z,49.84
2023-03-06T15:26:03.815Z,50.13
2023-03-06T15:28:37.219Z,50.11
2023-03-06T15:31:21.082Z,49.95
2023-03-06T15:34:06.914Z,49.46
2023-03-06T15:36:54.770Z,49.79
2023-03-06T15:39:41.569Z,49.91
2023-03-06T15:42:19.163Z,49.69
2023-03-06T15:44:56.190Z,50.11
2023-03-06T15:47:24.535Z,50.46
2023-03-06T15:49:53.304Z,50.42
2023-03-06T15:52:24.680Z,51.08
2023-03-06T15:54:52.309Z,51.87
2023-03-06T15:57:26.544Z,52.21
2023-03-06T15:59:56.048Z,52.43
2023-03-06T16:02:25.209Z,52.32
2023-03-06T16:04:53.521Z,51.64
2023-03-06T16:07:23.670Z,51.34
2023-03-06T16:09:51.499Z,51.89
2023-03-06T16:12:21.758Z,52.44
2023-03-06T16:14:50.140Z,54.04
2023-03-06T16:17:17.867Z,53.68
2023-03-06T16:19:45.523Z,54.73
2023-03-06T16:22:13.771Z,54.63
2023-03-06T16:24:41.814Z,55.94
2023-03-06T16:27:28.680Z,57.64
2023-03-06T16:29:56.278Z,59.10
2023-03-06T16:32:28.619Z,59.31
2023-03-06T16:34:56.256Z,59.25
2023-03-06T16:37:26.697Z,58.51
2023-03-06T16:39:54.357Z,57.97
2023-03-06T16:42:24.390Z,57.89
2023-03-06T16:44:51.818Z,58.81
2023-03-06T16:47:19.315Z,59.28
2023-03-06T16:49:47.261Z,59.62
2023-03-06T16:52:15.137Z,60.57
2023-03-06T16:54:44.673Z,59.76
2023-03-06T16:57:18.102Z,59.71
2023-03-06T16:59:51.460Z,58.42
2023-03-06T17:02:18.984Z,58.90
2023-03-06T17:04:46.945Z,58.54
2023-03-06T17:07:14.561Z,58.42
2023-03-06T17:09:42.009Z,58.05
2023-03-06T17:12:09.982Z,58.77
2023-03-06T17:14:38.476Z,59.19
2023-03-06T17:17:06.120Z,60.11
2023-03-06T17:19:33.761Z,61.55
2023-03-06T17:22:01.201Z,62.06
2023-03-06T17:24:30.351Z,62.55
2023-03-06T17:26:57.942Z,63.51
2023-03-06T17:29:25.448Z,63.23
2023-03-06T17:31:53.817Z,62.60
2023-03-06T17:34:23.630Z,63.07
2023-03-06T17:36:52.251Z,64.28
2023-03-06T17:39:20.238Z,64.22
2023-03-06T17:41:47.703Z,64.39
2023-03-06T17:44:19.760Z,64.52
2023-03-06T17:47:15.731Z,64.48
2023-03-06T17:49:43.424Z,65.72
2023-03-06T17:52:11.488Z,67.17
2023-03-06T17:54:41.836Z,65.94
2023-03-06T17:57:11.415Z,66.23
2023-03-06T17:59:40.434Z,65.93
2023-03-06T18:02:09.919Z,65.56
2023-03-06T18:04:38.058Z,65.21
2023-03-06T18:07:08.184Z,65.63
2023-03-06T18:09:35.860Z,65.64
2023-03-06T18:12:04.329Z,67.50
2023-03-06T18:14:31.853Z,67.70
2023-03-06T18:16:59.452Z,66.76
2023-03-06T18:19:28.431Z,66.50
2023-03-06T18:21:57.217Z,67.49
2023-03-06T18:24:24.786Z,67.08
2023-03-06T18:26:53.542Z,67.59
2023-03-06T18:29:22.154Z,67.74
2023-03-06T18:31:50.429Z,68.31
2023-03-06T18:34:19.665Z,68.50
2023-03-06T18:36:52.692Z,68.88
2023-03-06T18:39:22.310Z,69.47
2023-03-06T18:41:49.927Z,69.84
2023-03-06T18:44:21.348Z,69.64
2023-03-06T18:46:51.510Z,68.91
2023-03-06T18:49:19.568Z,69.04
2023-03-06T18:51:50.970Z,68.89
2023-03-06T18:54:22.656Z,69.56
2023-03-06T18:56:55.414Z,68.83
2023-03-06T18:59:28.350Z,69.71
2023-03-06T19:01:57.819Z,69.18
2023-03-06T19:04:28.490Z,68.85
2023-03-06T19:06:58.096Z,69.78
2023-03-06T19:09:27.945Z,70.34
2023-03-06T19:12:03.643Z,70.50
2023-03-06T19:14:33.918Z,71.57
2023-03-06T19:17:04.277Z,71.07
2023-03-06T19:19:31.854Z,71.05
2023-03-06T19:22:01.153Z,71.61
2023-03-06T19:24:28.774Z,70.78
2023-03-06T19:26:58.653Z,71.26
2023-03-06T19:29:27.758Z,71.87
2023-03-06T19:31:57.683Z,72.25
2023-03-06T19:34:25.862Z,72.93
2023-03-06T19:37:14.369Z,73.84
2023-03-06T19:39:44.825Z,73.37
2023-03-06T19:42:15.944Z,74.12
2023-03-06T19:44:45.358Z,73.95
2023-03-06T19:47:13.949Z,75.54
2023-03-06T19:49:41.627Z,76.10
2023-03-06T19:52:09.147Z,75.38
2023-03-06T19:54:38.137Z,74.13
2023-03-06T19:57:06.520Z,74.91
2023-03-06T19:59:34.656Z,74.12
2023-03-06T20:02:07.569Z,75.08
2023-03-06T20:04:37.751Z,74.97
2023-03-06T20:07:06.989Z,75.34
2023-03-06T20:09:38.378Z,74.59
2023-03-06T20:12:09.106Z,76.03
2023-03-06T20:14:39.016Z,75.50
2023-03-06T20:17:09.383Z,76.87
2023-03-06T20:19:38.159Z,76.65
2023-03-06T20:22:05.973Z,76.09
2023-03-06T20:24:35.124Z,76.01
2023-03-06T20:27:19.205Z,76.60
2023-03-06T20:29:47.106Z,77.92
2023-03-06T20:32:15.967Z,79.16
2023-03-06T20:34:46.646Z,80.01
2023-03-06T20:37:17.946Z,80.23
2023-03-06T20:39:48.057Z,80.28
2023-03-06T20:42:15.910Z,80.82
2023-03-06T20:44:43.490Z,81.78
2023-03-06T20:47:11.052Z,82.55
2023-03-06T20:49:39.076Z,83.64
2023-03-06T20:52:06.629Z,83.26
2023-03-06T20:54:34.116Z,83.84
2023-03-06T20:57:01.608Z,83.11
2023-03-06T20:59:30.231Z,82.92
2023-03-06T21:01:57.980Z,82.35
2023-03-06T21:04:25.904Z,82.59
2023-03-06T21:06:54.384Z,83.17
2023-03-06T21:09:21.900Z,83.79
2023-03-06T21:11:49.473Z,83.78
2023-03-06T21:14:19.376Z,83.60
2023-03-06T21:16:49.599Z,83.93
2023-03-06T21:19:18.089Z,83.48
2023-03-06T21:21:45.804Z,83.36
2023-03-06T21:24:13.758Z,83.80
2023-03-06T21:26:41.348Z,83.27
2023-03-06T21:29:09.188Z,83.91
2023-03-06T21:31:38.678Z,82.93
2023-03-06T21:34:07.691Z,82.99
2023-03-06T21:36:35.592Z,82.69
2023-03-06T21:39:06.245Z,83.32
2023-03-06T21:41:34.336Z,82.99
2023-03-06T21:44:06.723Z,82.31
2023-03-06T21:46:34.817Z,82.97
2023-03-06T21:49:09.515Z,83.87
2023-03-06T21:51:38.267Z,84.18
2023-03-06T21:54:09.695Z,84.23
2023-03-06T21:56:39.795Z,84.50
2023-03-06T21:59:07.282Z,85.38
2023-03-06T22:01:34.823Z,85.35
2023-03-06T22:04:03.917Z,84.71
2023-03-06T22:06:32.823Z,84.90
2023-03-06T22:09:01.645Z,85.08
2023-03-06T22:11:31.463Z,84.50
2023-03-06T22:13:59.127Z,84.02
2023-03-06T22:16:26.645Z,84.56
2023-03-06T22:18:54.120Z,84.80
2023-03-06T22:21:23.431Z,84.99
2023-03-06T22:23:57.401Z,85.73
2023-03-06T22:26:28.600Z,85.98
2023-03-06T22:28:56.693Z,86.58
2023-03-06T22:31:28.460Z,86.21
2023-03-06T22:33:58.637Z,86.53
2023-03-06T22:36:27.823Z,86.73
2023-03-06T22:38:58.652Z,85.84
2023-03-06T22:41:28.290Z,86.76
2023-03-06T22:44:01.373Z,86.51
2023-03-06T22:46:29.826Z,86.40
2023-03-06T22:49:01.834Z,85.34
2023-03-06T22:51:30.174Z,86.21
2023-03-06T22:53:58.196Z,86.56
2023-03-06T22:56:25.956Z,86.32
2023-03-06T22:58:53.686Z,86.46
2023-03-06T23:01:25.318Z,86.64
2023-03-06T23:03:59.353Z,87.34
2023-03-06T23:06:31.655Z,87.69
2023-03-06T23:09:23.575Z,87.40
2023-03-06T23:12:11.553Z,87.58
2023-03-06T23:14:57.541Z,87.42
2023-03-06T23:17:43.785Z,87.54
2023-03-06T23:20:29.998Z,87.29
2023-03-06T23:23:15.804Z,87.56
2023-03-06T23:25:44.547Z,87.85
2023-03-06T23:28:12.691Z,88.66
2023-03-06T23:30:41.148Z,89.51
2023-03-06T23:33:09.572Z,89.28
2023-03-06T23:35:41.513Z,89.51
2023-03-06T23:38:09.542Z,89.42
2023-03-06T23:40:38.966Z,90.17
2023-03-06T23:43:06.990Z,90.33
2023-03-06T23:45:34.710Z,89.73
2023-03-06T23:48:02.162Z,89.88
2023-03-06T23:50:29.691Z,89.90
2023-03-06T23:52:57.163Z,89.61
2023-03-06T23:55:24.698Z,90.56
2023-03-06T23:57:52.230Z,90.83
